sensor_id;sensor_type;location;lat;lon;timestamp;P1;durP1;ratioP1;P2;durP2;ratioP2
29550;SDS011;16488;52.396;10.696;2024-01-16T00:01:45;10.25;;;4.20;;
29550;SDS011;16488;52.396;10.696;2024-01-16T00:04:11;6.22;;;3.38;;
29550;SDS011;16488;52.396;10.696;2024-01-16T00:06:41;8.32;;;3.45;;
29550;SDS011;16488;52.396;10.696;2024-01-16T00:09:08;9.73;;;3.75;;
29550;SDS011;16488;52.396;10.696;2024-01-16T00:11:39;7.05;;;3.35;;
29550;SDS011;16488;52.396;10.696;2024-01-16T00:14:06;10.65;;;3.38;;
29550;SDS011;16488;52.396;10.696;2024-01-16T00:16:31;14.35;;;4.00;;
29550;SDS011;16488;52.396;10.696;2024-01-16T00:18:57;7.10;;;3.42;;
29550;SDS011;16488;52.396;10.696;2024-01-16T00:21:23;8.38;;;3.88;;
29550;SDS011;16488;52.396;10.696;2024-01-16T00:23:48;8.73;;;4.00;;
29550;SDS011;16488;52.396;10.696;2024-01-16T00:26:20;11.52;;;3.72;;
29550;SDS011;16488;52.396;10.696;2024-01-16T00:28:46;6.38;;;3.38;;
29550;SDS011;16488;52.396;10.696;2024-01-16T00:31:12;10.27;;;3.17;;
29550;SDS011;16488;52.396;10.696;2024-01-16T00:33:38;6.10;;;3.55;;
29550;SDS011;16488;52.396;10.696;2024-01-16T00:36:04;12.77;;;3.35;;
29550;SDS011;16488;52.396;10.696;2024-01-16T00:40:59;7.50;;;3.10;;
29550;SDS011;16488;52.396;10.696;2024-01-16T00:43:24;4.72;;;3.13;;
29550;SDS011;16488;52.396;10.696;2024-01-16T00:45:50;7.28;;;3.20;;
29550;SDS011;16488;52.396;10.696;2024-01-16T00:48:15;5.43;;;3.00;;
29550;SDS011;16488;52.396;10.696;2024-01-16T00:50:41;5.95;;;3.05;;
29550;SDS011;16488;52.396;10.696;2024-01-16T00:53:07;5.38;;;3.40;;
29550;SDS011;16488;52.396;10.696;2024-01-16T00:55:32;7.47;;;3.25;;
29550;SDS011;16488;52.396;10.696;2024-01-16T00:57:58;6.85;;;3.53;;
29550;SDS011;16488;52.396;10.696;2024-01-16T01:00:24;9.82;;;4.60;;
29550;SDS011;16488;52.396;10.696;2024-01-16T01:02:49;7.88;;;3.63;;
29550;SDS011;16488;52.396;10.696;2024-01-16T01:05:15;9.68;;;2.85;;
29550;SDS011;16488;52.396;10.696;2024-01-16T01:07:40;3.95;;;2.40;;
29550;SDS011;16488;52.396;10.696;2024-01-16T01:10:06;3.38;;;2.70;;
29550;SDS011;16488;52.396;10.696;2024-01-16T01:12:32;8.45;;;4.32;;
29550;SDS011;16488;52.396;10.696;2024-01-16T01:14:57;6.43;;;2.78;;
29550;SDS011;16488;52.396;10.696;2024-01-16T01:17:23;7.65;;;2.88;;
29550;SDS011;16488;52.396;10.696;2024-01-16T01:19:49;8.13;;;3.50;;
29550;SDS011;16488;52.396;10.696;2024-01-16T01:22:15;8.70;;;3.47;;
29550;SDS011;16488;52.396;10.696;2024-01-16T01:24:40;10.23;;;4.28;;
29550;SDS011;16488;52.396;10.696;2024-01-16T01:27:06;5.53;;;3.20;;
29550;SDS011;16488;52.396;10.696;2024-01-16T01:29:32;9.18;;;4.53;;
29550;SDS011;16488;52.396;10.696;2024-01-16T01:31:57;6.25;;;3.78;;
29550;SDS011;16488;52.396;10.696;2024-01-16T01:34:23;6.20;;;3.00;;
29550;SDS011;16488;52.396;10.696;2024-01-16T01:36:48;9.75;;;3.40;;
29550;SDS011;16488;52.396;10.696;2024-01-16T01:41:40;8.23;;;2.88;;
29550;SDS011;16488;52.396;10.696;2024-01-16T01:44:06;5.47;;;3.63;;
29550;SDS011;16488;52.396;10.696;2024-01-16T01:48:58;11.70;;;3.38;;
29550;SDS011;16488;52.396;10.696;2024-01-16T01:53:50;8.35;;;3.47;;
29550;SDS011;16488;52.396;10.696;2024-01-16T01:56:18;6.25;;;3.15;;
29550;SDS011;16488;52.396;10.696;2024-01-16T01:58:48;3.22;;;2.42;;
29550;SDS011;16488;52.396;10.696;2024-01-16T02:01:18;4.30;;;2.58;;
29550;SDS011;16488;52.396;10.696;2024-01-16T02:03:45;3.10;;;2.50;;
29550;SDS011;16488;52.396;10.696;2024-01-16T02:06:12;3.65;;;2.58;;
29550;SDS011;16488;52.396;10.696;2024-01-16T02:08:39;5.82;;;2.67;;
29550;SDS011;16488;52.396;10.696;2024-01-16T02:11:05;8.88;;;3.00;;
29550;SDS011;16488;52.396;10.696;2024-01-16T02:15:56;8.85;;;3.70;;
29550;SDS011;16488;52.396;10.696;2024-01-16T02:18:22;4.70;;;2.83;;
29550;SDS011;16488;52.396;10.696;2024-01-16T02:20:48;4.65;;;2.05;;
29550;SDS011;16488;52.396;10.696;2024-01-16T02:25:41;3.28;;;2.53;;
29550;SDS011;16488;52.396;10.696;2024-01-16T02:28:07;6.50;;;2.30;;
29550;SDS011;16488;52.396;10.696;2024-01-16T02:30:33;13.07;;;1.95;;
29550;SDS011;16488;52.396;10.696;2024-01-16T02:32:59;5.38;;;2.38;;
29550;SDS011;16488;52.396;10.696;2024-01-16T02:35:24;2.40;;;1.92;;
29550;SDS011;16488;52.396;10.696;2024-01-16T02:40:15;9.98;;;1.88;;
29550;SDS011;16488;52.396;10.696;2024-01-16T02:42:41;1.92;;;1.50;;
29550;SDS011;16488;52.396;10.696;2024-01-16T02:45:07;3.05;;;1.63;;
29550;SDS011;16488;52.396;10.696;2024-01-16T02:47:33;5.30;;;1.80;;
29550;SDS011;16488;52.396;10.696;2024-01-16T02:52:24;2.38;;;1.60;;
29550;SDS011;16488;52.396;10.696;2024-01-16T02:57:15;2.10;;;1.60;;
29550;SDS011;16488;52.396;10.696;2024-01-16T02:59:44;10.23;;;2.20;;
29550;SDS011;16488;52.396;10.696;2024-01-16T03:02:10;4.30;;;1.80;;
29550;SDS011;16488;52.396;10.696;2024-01-16T03:04:36;7.32;;;2.20;;
29550;SDS011;16488;52.396;10.696;2024-01-16T03:09:27;3.88;;;1.98;;
29550;SDS011;16488;52.396;10.696;2024-01-16T03:11:53;10.65;;;2.00;;
29550;SDS011;16488;52.396;10.696;2024-01-16T03:14:18;2.83;;;2.60;;
29550;SDS011;16488;52.396;10.696;2024-01-16T03:19:11;1.65;;;1.48;;
29550;SDS011;16488;52.396;10.696;2024-01-16T03:21:37;9.00;;;2.30;;
29550;SDS011;16488;52.396;10.696;2024-01-16T03:24:03;9.15;;;3.00;;
29550;SDS011;16488;52.396;10.696;2024-01-16T03:26:30;8.70;;;2.97;;
29550;SDS011;16488;52.396;10.696;2024-01-16T03:28:57;18.20;;;3.20;;
29550;SDS011;16488;52.396;10.696;2024-01-16T03:33:48;5.13;;;2.20;;
29550;SDS011;16488;52.396;10.696;2024-01-16T03:38:44;8.20;;;2.63;;
29550;SDS011;16488;52.396;10.696;2024-01-16T03:41:12;9.82;;;2.42;;
29550;SDS011;16488;52.396;10.696;2024-01-16T03:43:38;7.80;;;2.65;;
29550;SDS011;16488;52.396;10.696;2024-01-16T03:46:05;3.65;;;2.42;;
29550;SDS011;16488;52.396;10.696;2024-01-16T03:48:31;3.53;;;2.50;;
29550;SDS011;16488;52.396;10.696;2024-01-16T03:50:57;3.65;;;2.08;;
29550;SDS011;16488;52.396;10.696;2024-01-16T03:53:23;9.75;;;2.00;;
29550;SDS011;16488;52.396;10.696;2024-01-16T03:55:48;3.95;;;2.20;;
29550;SDS011;16488;52.396;10.696;2024-01-16T03:58:15;4.55;;;2.22;;
29550;SDS011;16488;52.396;10.696;2024-01-16T04:00:41;5.25;;;2.10;;
29550;SDS011;16488;52.396;10.696;2024-01-16T04:03:07;3.72;;;2.33;;
29550;SDS011;16488;52.396;10.696;2024-01-16T04:05:33;4.55;;;2.45;;
29550;SDS011;16488;52.396;10.696;2024-01-16T04:07:59;4.30;;;2.00;;
29550;SDS011;16488;52.396;10.696;2024-01-16T04:10:25;8.55;;;2.15;;
29550;SDS011;16488;52.396;10.696;2024-01-16T04:12:51;4.55;;;2.22;;
29550;SDS011;16488;52.396;10.696;2024-01-16T04:17:42;4.25;;;1.90;;
29550;SDS011;16488;52.396;10.696;2024-01-16T04:20:08;4.20;;;2.00;;
29550;SDS011;16488;52.396;10.696;2024-01-16T04:22:35;6.35;;;1.98;;
29550;SDS011;16488;52.396;10.696;2024-01-16T04:25:01;2.58;;;1.98;;
29550;SDS011;16488;52.396;10.696;2024-01-16T04:27:26;5.78;;;2.75;;
29550;SDS011;16488;52.396;10.696;2024-01-16T04:29:52;5.55;;;2.28;;
29550;SDS011;16488;52.396;10.696;2024-01-16T04:32:18;6.53;;;2.25;;
29550;SDS011;16488;52.396;10.696;2024-01-16T04:34:44;3.33;;;1.95;;
29550;SDS011;16488;52.396;10.696;2024-01-16T04:37:10;10.43;;;2.20;;
29550;SDS011;16488;52.396;10.696;2024-01-16T04:42:01;11.43;;;1.90;;
29550;SDS011;16488;52.396;10.696;2024-01-16T04:46:52;4.40;;;2.58;;
29550;SDS011;16488;52.396;10.696;2024-01-16T04:49:18;3.25;;;2.10;;
29550;SDS011;16488;52.396;10.696;2024-01-16T04:51:43;8.25;;;2.78;;
29550;SDS011;16488;52.396;10.696;2024-01-16T04:56:36;5.63;;;3.40;;
29550;SDS011;16488;52.396;10.696;2024-01-16T04:59:02;9.00;;;2.70;;
29550;SDS011;16488;52.396;10.696;2024-01-16T05:01:27;7.47;;;3.15;;
29550;SDS011;16488;52.396;10.696;2024-01-16T05:06:19;6.95;;;2.63;;
29550;SDS011;16488;52.396;10.696;2024-01-16T05:08:46;7.43;;;2.97;;
29550;SDS011;16488;52.396;10.696;2024-01-16T05:13:37;10.38;;;4.28;;
29550;SDS011;16488;52.396;10.696;2024-01-16T05:16:03;6.97;;;3.22;;
29550;SDS011;16488;52.396;10.696;2024-01-16T05:18:29;9.73;;;4.55;;
29550;SDS011;16488;52.396;10.696;2024-01-16T05:23:21;13.05;;;5.30;;
29550;SDS011;16488;52.396;10.696;2024-01-16T05:25:47;9.70;;;4.53;;
29550;SDS011;16488;52.396;10.696;2024-01-16T05:30:38;14.45;;;4.70;;
29550;SDS011;16488;52.396;10.696;2024-01-16T05:33:03;21.35;;;5.88;;
29550;SDS011;16488;52.396;10.696;2024-01-16T05:37:55;12.40;;;5.03;;
29550;SDS011;16488;52.396;10.696;2024-01-16T05:40:21;15.75;;;5.25;;
29550;SDS011;16488;52.396;10.696;2024-01-16T05:45:16;17.50;;;5.88;;
29550;SDS011;16488;52.396;10.696;2024-01-16T05:47:42;13.77;;;4.10;;
29550;SDS011;16488;52.396;10.696;2024-01-16T05:52:33;14.40;;;4.40;;
29550;SDS011;16488;52.396;10.696;2024-01-16T05:57:25;17.15;;;5.95;;
29550;SDS011;16488;52.396;10.696;2024-01-16T06:02:17;14.32;;;4.65;;
29550;SDS011;16488;52.396;10.696;2024-01-16T06:07:08;14.48;;;4.45;;
29550;SDS011;16488;52.396;10.696;2024-01-16T06:09:38;15.32;;;5.15;;
29550;SDS011;16488;52.396;10.696;2024-01-16T06:12:07;16.40;;;4.68;;
29550;SDS011;16488;52.396;10.696;2024-01-16T06:16:59;16.00;;;5.45;;
29550;SDS011;16488;52.396;10.696;2024-01-16T06:19:24;12.75;;;5.50;;
29550;SDS011;16488;52.396;10.696;2024-01-16T06:21:50;15.18;;;5.03;;
29550;SDS011;16488;52.396;10.696;2024-01-16T06:24:16;13.25;;;4.65;;
29550;SDS011;16488;52.396;10.696;2024-01-16T06:26:41;12.57;;;4.25;;
29550;SDS011;16488;52.396;10.696;2024-01-16T06:31:33;13.38;;;4.57;;
29550;SDS011;16488;52.396;10.696;2024-01-16T06:33:59;19.35;;;6.28;;
29550;SDS011;16488;52.396;10.696;2024-01-16T06:36:25;9.88;;;5.22;;
29550;SDS011;16488;52.396;10.696;2024-01-16T06:38:50;11.55;;;5.03;;
29550;SDS011;16488;52.396;10.696;2024-01-16T06:43:41;13.98;;;4.70;;
29550;SDS011;16488;52.396;10.696;2024-01-16T06:48:34;13.00;;;5.70;;
29550;SDS011;16488;52.396;10.696;2024-01-16T06:51:01;8.13;;;4.47;;
29550;SDS011;16488;52.396;10.696;2024-01-16T06:55:53;15.73;;;5.32;;
29550;SDS011;16488;52.396;10.696;2024-01-16T07:00:44;9.48;;;5.25;;
29550;SDS011;16488;52.396;10.696;2024-01-16T07:03:11;18.08;;;4.63;;
29550;SDS011;16488;52.396;10.696;2024-01-16T07:08:03;13.75;;;4.00;;
29550;SDS011;16488;52.396;10.696;2024-01-16T07:10:29;10.90;;;3.58;;
29550;SDS011;16488;52.396;10.696;2024-01-16T07:12:54;16.35;;;4.07;;
29550;SDS011;16488;52.396;10.696;2024-01-16T07:15:21;11.43;;;4.25;;
29550;SDS011;16488;52.396;10.696;2024-01-16T07:20:12;18.15;;;3.72;;
29550;SDS011;16488;52.396;10.696;2024-01-16T07:22:38;12.52;;;4.22;;
29550;SDS011;16488;52.396;10.696;2024-01-16T07:25:07;12.73;;;5.20;;
29550;SDS011;16488;52.396;10.696;2024-01-16T07:29:59;27.23;;;4.63;;
29550;SDS011;16488;52.396;10.696;2024-01-16T07:34:50;17.10;;;5.25;;
29550;SDS011;16488;52.396;10.696;2024-01-16T07:37:17;20.85;;;5.80;;
29550;SDS011;16488;52.396;10.696;2024-01-16T07:42:09;16.77;;;5.03;;
29550;SDS011;16488;52.396;10.696;2024-01-16T07:44:35;18.20;;;5.22;;
29550;SDS011;16488;52.396;10.696;2024-01-16T07:49:27;14.18;;;3.80;;
29550;SDS011;16488;52.396;10.696;2024-01-16T07:54:18;20.52;;;5.13;;
29550;SDS011;16488;52.396;10.696;2024-01-16T07:59:10;13.68;;;5.25;;
29550;SDS011;16488;52.396;10.696;2024-01-16T08:04:02;9.02;;;3.55;;
29550;SDS011;16488;52.396;10.696;2024-01-16T08:06:28;14.10;;;5.30;;
29550;SDS011;16488;52.396;10.696;2024-01-16T08:08:55;13.38;;;4.97;;
29550;SDS011;16488;52.396;10.696;2024-01-16T08:13:46;12.90;;;4.05;;
29550;SDS011;16488;52.396;10.696;2024-01-16T08:18:38;13.32;;;4.80;;
29550;SDS011;16488;52.396;10.696;2024-01-16T08:21:03;18.35;;;6.22;;
29550;SDS011;16488;52.396;10.696;2024-01-16T08:23:29;13.75;;;5.55;;
29550;SDS011;16488;52.396;10.696;2024-01-16T08:25:54;10.40;;;5.03;;
29550;SDS011;16488;52.396;10.696;2024-01-16T08:28:20;19.80;;;5.53;;
29550;SDS011;16488;52.396;10.696;2024-01-16T08:30:49;18.27;;;4.78;;
29550;SDS011;16488;52.396;10.696;2024-01-16T08:35:40;11.27;;;4.82;;
29550;SDS011;16488;52.396;10.696;2024-01-16T08:40:31;14.68;;;5.63;;
29550;SDS011;16488;52.396;10.696;2024-01-16T08:45:23;14.20;;;5.72;;
29550;SDS011;16488;52.396;10.696;2024-01-16T08:47:51;21.35;;;6.20;;
29550;SDS011;16488;52.396;10.696;2024-01-16T08:52:42;18.55;;;6.15;;
29550;SDS011;16488;52.396;10.696;2024-01-16T08:55:08;16.02;;;4.93;;
29550;SDS011;16488;52.396;10.696;2024-01-16T08:57:36;25.65;;;6.38;;
29550;SDS011;16488;52.396;10.696;2024-01-16T09:02:31;20.90;;;6.30;;
29550;SDS011;16488;52.396;10.696;2024-01-16T09:07:23;21.47;;;6.30;;
29550;SDS011;16488;52.396;10.696;2024-01-16T09:09:49;18.17;;;5.80;;
29550;SDS011;16488;52.396;10.696;2024-01-16T09:14:41;15.50;;;5.88;;
29550;SDS011;16488;52.396;10.696;2024-01-16T09:17:07;15.13;;;6.25;;
29550;SDS011;16488;52.396;10.696;2024-01-16T09:19:32;14.10;;;5.85;;
29550;SDS011;16488;52.396;10.696;2024-01-16T09:21:58;16.23;;;6.70;;
29550;SDS011;16488;52.396;10.696;2024-01-16T09:26:49;14.95;;;5.75;;
29550;SDS011;16488;52.396;10.696;2024-01-16T09:29:15;10.73;;;5.00;;
29550;SDS011;16488;52.396;10.696;2024-01-16T09:31:41;14.45;;;6.55;;
29550;SDS011;16488;52.396;10.696;2024-01-16T09:34:07;20.00;;;5.90;;
29550;SDS011;16488;52.396;10.696;2024-01-16T09:39:01;15.93;;;5.40;;
29550;SDS011;16488;52.396;10.696;2024-01-16T09:41:27;12.23;;;5.20;;
29550;SDS011;16488;52.396;10.696;2024-01-16T09:46:20;16.80;;;5.60;;
29550;SDS011;16488;52.396;10.696;2024-01-16T09:48:49;5.28;;;2.78;;
29550;SDS011;16488;52.396;10.696;2024-01-16T09:51:19;9.20;;;3.92;;
29550;SDS011;16488;52.396;10.696;2024-01-16T09:53:44;8.00;;;3.30;;
29550;SDS011;16488;52.396;10.696;2024-01-16T09:56:14;13.23;;;4.88;;
29550;SDS011;16488;52.396;10.696;2024-01-16T09:58:41;10.55;;;4.53;;
29550;SDS011;16488;52.396;10.696;2024-01-16T10:01:08;16.40;;;5.30;;
29550;SDS011;16488;52.396;10.696;2024-01-16T10:03:36;13.80;;;4.88;;
29550;SDS011;16488;52.396;10.696;2024-01-16T10:06:06;11.30;;;4.88;;
29550;SDS011;16488;52.396;10.696;2024-01-16T10:08:32;5.75;;;3.20;;
29550;SDS011;16488;52.396;10.696;2024-01-16T10:13:25;11.98;;;4.07;;
29550;SDS011;16488;52.396;10.696;2024-01-16T10:15:51;8.45;;;3.42;;
29550;SDS011;16488;52.396;10.696;2024-01-16T10:18:26;13.63;;;5.18;;
29550;SDS011;16488;52.396;10.696;2024-01-16T10:20:53;6.97;;;3.42;;
29550;SDS011;16488;52.396;10.696;2024-01-16T10:23:28;13.88;;;4.88;;
29550;SDS011;16488;52.396;10.696;2024-01-16T10:26:11;9.07;;;3.03;;
29550;SDS011;16488;52.396;10.696;2024-01-16T10:28:40;11.63;;;4.82;;
29550;SDS011;16488;52.396;10.696;2024-01-16T10:31:08;7.75;;;2.60;;
29550;SDS011;16488;52.396;10.696;2024-01-16T10:33:35;12.18;;;4.90;;
29550;SDS011;16488;52.396;10.696;2024-01-16T10:38:41;13.88;;;5.10;;
29550;SDS011;16488;52.396;10.696;2024-01-16T10:41:12;9.18;;;3.47;;
29550;SDS011;16488;52.396;10.696;2024-01-16T10:43:39;13.20;;;4.85;;
29550;SDS011;16488;52.396;10.696;2024-01-16T10:46:09;10.98;;;5.35;;
29550;SDS011;16488;52.396;10.696;2024-01-16T10:48:40;10.02;;;4.97;;
29550;SDS011;16488;52.396;10.696;2024-01-16T10:51:10;16.23;;;6.03;;
29550;SDS011;16488;52.396;10.696;2024-01-16T10:53:43;12.15;;;5.13;;
29550;SDS011;16488;52.396;10.696;2024-01-16T10:56:10;18.98;;;5.32;;
29550;SDS011;16488;52.396;10.696;2024-01-16T10:58:38;8.00;;;4.93;;
29550;SDS011;16488;52.396;10.696;2024-01-16T11:01:11;16.35;;;5.20;;
29550;SDS011;16488;52.396;10.696;2024-01-16T11:03:47;16.83;;;5.72;;
29550;SDS011;16488;52.396;10.696;2024-01-16T11:06:14;15.63;;;5.57;;
29550;SDS011;16488;52.396;10.696;2024-01-16T11:08:41;28.45;;;19.60;;
29550;SDS011;16488;52.396;10.696;2024-01-16T11:11:10;11.57;;;5.38;;
29550;SDS011;16488;52.396;10.696;2024-01-16T11:13:37;14.20;;;5.55;;
29550;SDS011;16488;52.396;10.696;2024-01-16T11:16:03;16.77;;;5.63;;
29550;SDS011;16488;52.396;10.696;2024-01-16T11:18:30;13.45;;;4.95;;
29550;SDS011;16488;52.396;10.696;2024-01-16T11:21:00;11.75;;;5.25;;
29550;SDS011;16488;52.396;10.696;2024-01-16T11:23:37;15.20;;;6.43;;
29550;SDS011;16488;52.396;10.696;2024-01-16T11:26:45;12.63;;;6.15;;
29550;SDS011;16488;52.396;10.696;2024-01-16T11:28:57;12.35;;;5.95;;
29550;SDS011;16488;52.396;10.696;2024-01-16T11:31:33;11.82;;;4.53;;
29550;SDS011;16488;52.396;10.696;2024-01-16T11:34:01;9.90;;;4.97;;
29550;SDS011;16488;52.396;10.696;2024-01-16T11:39:25;20.40;;;7.00;;
29550;SDS011;16488;52.396;10.696;2024-01-16T11:44:35;13.13;;;6.00;;
29550;SDS011;16488;52.396;10.696;2024-01-16T11:47:19;25.10;;;7.57;;
29550;SDS011;16488;52.396;10.696;2024-01-16T11:49:49;8.15;;;3.85;;
29550;SDS011;16488;52.396;10.696;2024-01-16T11:52:38;13.00;;;5.65;;
29550;SDS011;16488;52.396;10.696;2024-01-16T11:55:27;5.65;;;3.30;;
29550;SDS011;16488;52.396;10.696;2024-01-16T12:00:33;20.73;;;5.82;;
29550;SDS011;16488;52.396;10.696;2024-01-16T12:03:02;12.20;;;5.90;;
29550;SDS011;16488;52.396;10.696;2024-01-16T12:05:29;9.80;;;4.95;;
29550;SDS011;16488;52.396;10.696;2024-01-16T12:07:54;7.05;;;3.67;;
29550;SDS011;16488;52.396;10.696;2024-01-16T12:10:23;18.50;;;5.32;;
29550;SDS011;16488;52.396;10.696;2024-01-16T12:12:50;12.10;;;4.40;;
29550;SDS011;16488;52.396;10.696;2024-01-16T12:15:21;13.70;;;5.07;;
29550;SDS011;16488;52.396;10.696;2024-01-16T12:17:59;18.33;;;5.80;;
29550;SDS011;16488;52.396;10.696;2024-01-16T12:20:27;11.02;;;5.40;;
29550;SDS011;16488;52.396;10.696;2024-01-16T12:22:55;11.43;;;4.70;;
29550;SDS011;16488;52.396;10.696;2024-01-16T12:25:25;7.70;;;3.45;;
29550;SDS011;16488;52.396;10.696;2024-01-16T12:28:09;17.65;;;4.85;;
29550;SDS011;16488;52.396;10.696;2024-01-16T12:30:36;3.63;;;2.28;;
29550;SDS011;16488;52.396;10.696;2024-01-16T12:33:09;9.05;;;3.75;;
29550;SDS011;16488;52.396;10.696;2024-01-16T12:35:38;21.63;;;5.65;;
29550;SDS011;16488;52.396;10.696;2024-01-16T12:38:09;12.52;;;4.78;;
29550;SDS011;16488;52.396;10.696;2024-01-16T12:40:36;9.52;;;4.72;;
29550;SDS011;16488;52.396;10.696;2024-01-16T12:43:07;12.02;;;4.55;;
29550;SDS011;16488;52.396;10.696;2024-01-16T12:45:34;11.15;;;3.55;;
29550;SDS011;16488;52.396;10.696;2024-01-16T12:48:01;10.63;;;5.22;;
29550;SDS011;16488;52.396;10.696;2024-01-16T12:50:28;10.73;;;4.50;;
29550;SDS011;16488;52.396;10.696;2024-01-16T12:53:08;10.10;;;5.63;;
29550;SDS011;16488;52.396;10.696;2024-01-16T12:55:39;8.85;;;5.15;;
29550;SDS011;16488;52.396;10.696;2024-01-16T13:00:48;17.63;;;4.60;;
29550;SDS011;16488;52.396;10.696;2024-01-16T13:03:16;13.90;;;4.80;;
29550;SDS011;16488;52.396;10.696;2024-01-16T13:05:46;5.97;;;3.35;;
29550;SDS011;16488;52.396;10.696;2024-01-16T13:08:21;8.93;;;3.70;;
29550;SDS011;16488;52.396;10.696;2024-01-16T13:11:03;10.45;;;3.85;;
29550;SDS011;16488;52.396;10.696;2024-01-16T13:13:29;10.32;;;3.22;;
29550;SDS011;16488;52.396;10.696;2024-01-16T13:15:55;9.52;;;3.95;;
29550;SDS011;16488;52.396;10.696;2024-01-16T13:18:22;8.15;;;3.47;;
29550;SDS011;16488;52.396;10.696;2024-01-16T13:20:53;6.05;;;2.60;;
29550;SDS011;16488;52.396;10.696;2024-01-16T13:23:19;8.15;;;3.67;;
29550;SDS011;16488;52.396;10.696;2024-01-16T13:25:46;6.28;;;4.13;;
29550;SDS011;16488;52.396;10.696;2024-01-16T13:28:14;5.15;;;3.22;;
29550;SDS011;16488;52.396;10.696;2024-01-16T13:30:40;11.30;;;5.15;;
29550;SDS011;16488;52.396;10.696;2024-01-16T13:33:07;12.85;;;6.35;;
29550;SDS011;16488;52.396;10.696;2024-01-16T13:35:37;11.95;;;4.20;;
29550;SDS011;16488;52.396;10.696;2024-01-16T13:38:07;13.85;;;4.82;;
29550;SDS011;16488;52.396;10.696;2024-01-16T13:40:34;15.43;;;4.78;;
29550;SDS011;16488;52.396;10.696;2024-01-16T13:43:02;17.45;;;4.90;;
29550;SDS011;16488;52.396;10.696;2024-01-16T13:47:54;9.07;;;4.25;;
29550;SDS011;16488;52.396;10.696;2024-01-16T13:50:21;13.80;;;6.47;;
29550;SDS011;16488;52.396;10.696;2024-01-16T13:52:46;12.25;;;5.45;;
29550;SDS011;16488;52.396;10.696;2024-01-16T13:55:12;19.65;;;5.95;;
29550;SDS011;16488;52.396;10.696;2024-01-16T13:57:38;12.15;;;5.20;;
29550;SDS011;16488;52.396;10.696;2024-01-16T14:00:04;14.43;;;7.28;;
29550;SDS011;16488;52.396;10.696;2024-01-16T14:02:32;21.30;;;7.18;;
29550;SDS011;16488;52.396;10.696;2024-01-16T14:05:03;12.68;;;5.47;;
29550;SDS011;16488;52.396;10.696;2024-01-16T14:07:30;13.73;;;7.30;;
29550;SDS011;16488;52.396;10.696;2024-01-16T14:09:56;20.67;;;7.75;;
29550;SDS011;16488;52.396;10.696;2024-01-16T14:12:23;23.85;;;8.02;;
29550;SDS011;16488;52.396;10.696;2024-01-16T14:14:49;24.50;;;9.15;;
29550;SDS011;16488;52.396;10.696;2024-01-16T14:17:16;23.80;;;8.70;;
29550;SDS011;16488;52.396;10.696;2024-01-16T14:19:41;19.10;;;9.02;;
29550;SDS011;16488;52.396;10.696;2024-01-16T14:22:07;11.63;;;6.13;;
29550;SDS011;16488;52.396;10.696;2024-01-16T14:24:33;15.73;;;7.72;;
29550;SDS011;16488;52.396;10.696;2024-01-16T14:26:59;24.95;;;9.63;;
29550;SDS011;16488;52.396;10.696;2024-01-16T14:29:25;24.55;;;9.77;;
29550;SDS011;16488;52.396;10.696;2024-01-16T14:31:51;20.85;;;7.35;;
29550;SDS011;16488;52.396;10.696;2024-01-16T14:34:17;23.30;;;9.45;;
29550;SDS011;16488;52.396;10.696;2024-01-16T14:36:44;19.38;;;10.27;;
29550;SDS011;16488;52.396;10.696;2024-01-16T14:39:10;23.02;;;10.05;;
29550;SDS011;16488;52.396;10.696;2024-01-16T14:41:41;23.33;;;11.98;;
29550;SDS011;16488;52.396;10.696;2024-01-16T14:44:08;25.08;;;10.63;;
29550;SDS011;16488;52.396;10.696;2024-01-16T14:46:35;24.35;;;11.02;;
29550;SDS011;16488;52.396;10.696;2024-01-16T14:49:01;29.58;;;12.57;;
29550;SDS011;16488;52.396;10.696;2024-01-16T14:51:27;20.95;;;11.55;;
29550;SDS011;16488;52.396;10.696;2024-01-16T14:53:53;17.67;;;8.63;;
29550;SDS011;16488;52.396;10.696;2024-01-16T14:56:18;22.05;;;12.43;;
29550;SDS011;16488;52.396;10.696;2024-01-16T14:58:45;28.27;;;13.95;;
29550;SDS011;16488;52.396;10.696;2024-01-16T15:01:11;27.00;;;15.00;;
29550;SDS011;16488;52.396;10.696;2024-01-16T15:03:36;22.25;;;10.35;;
29550;SDS011;16488;52.396;10.696;2024-01-16T15:06:03;27.30;;;14.10;;
29550;SDS011;16488;52.396;10.696;2024-01-16T15:08:30;30.27;;;15.70;;
29550;SDS011;16488;52.396;10.696;2024-01-16T15:10:58;36.05;;;15.15;;
29550;SDS011;16488;52.396;10.696;2024-01-16T15:13:27;27.05;;;12.00;;
29550;SDS011;16488;52.396;10.696;2024-01-16T15:15:52;21.85;;;9.60;;
29550;SDS011;16488;52.396;10.696;2024-01-16T15:18:20;40.40;;;16.55;;
29550;SDS011;16488;52.396;10.696;2024-01-16T15:23:12;35.20;;;17.23;;
29550;SDS011;16488;52.396;10.696;2024-01-16T15:25:38;30.17;;;13.38;;
29550;SDS011;16488;52.396;10.696;2024-01-16T15:28:03;34.13;;;15.52;;
29550;SDS011;16488;52.396;10.696;2024-01-16T15:30:29;27.92;;;12.73;;
29550;SDS011;16488;52.396;10.696;2024-01-16T15:33:00;35.67;;;19.17;;
29550;SDS011;16488;52.396;10.696;2024-01-16T15:35:29;38.30;;;18.38;;
29550;SDS011;16488;52.396;10.696;2024-01-16T15:37:55;35.17;;;17.23;;
29550;SDS011;16488;52.396;10.696;2024-01-16T15:40:20;33.35;;;15.18;;
29550;SDS011;16488;52.396;10.696;2024-01-16T15:42:46;37.42;;;18.77;;
29550;SDS011;16488;52.396;10.696;2024-01-16T15:45:11;35.38;;;16.92;;
29550;SDS011;16488;52.396;10.696;2024-01-16T15:47:37;34.25;;;18.48;;
29550;SDS011;16488;52.396;10.696;2024-01-16T15:50:04;30.90;;;17.15;;
29550;SDS011;16488;52.396;10.696;2024-01-16T15:52:30;33.50;;;17.85;;
29550;SDS011;16488;52.396;10.696;2024-01-16T15:54:56;33.13;;;16.80;;
29550;SDS011;16488;52.396;10.696;2024-01-16T15:57:22;29.17;;;15.82;;
29550;SDS011;16488;52.396;10.696;2024-01-16T16:02:14;28.98;;;15.55;;
29550;SDS011;16488;52.396;10.696;2024-01-16T16:04:40;36.70;;;15.77;;
29550;SDS011;16488;52.396;10.696;2024-01-16T16:07:06;33.88;;;15.95;;
29550;SDS011;16488;52.396;10.696;2024-01-16T16:11:59;39.88;;;13.93;;
29550;SDS011;16488;52.396;10.696;2024-01-16T16:14:25;22.23;;;13.27;;
29550;SDS011;16488;52.396;10.696;2024-01-16T16:16:53;26.13;;;14.55;;
29550;SDS011;16488;52.396;10.696;2024-01-16T16:19:19;30.30;;;14.50;;
29550;SDS011;16488;52.396;10.696;2024-01-16T16:21:45;25.38;;;13.68;;
29550;SDS011;16488;52.396;10.696;2024-01-16T16:24:13;35.50;;;13.77;;
29550;SDS011;16488;52.396;10.696;2024-01-16T16:26:41;19.25;;;10.32;;
29550;SDS011;16488;52.396;10.696;2024-01-16T16:29:09;25.48;;;11.63;;
29550;SDS011;16488;52.396;10.696;2024-01-16T16:31:36;20.48;;;10.70;;
29550;SDS011;16488;52.396;10.696;2024-01-16T16:34:03;28.42;;;11.38;;
29550;SDS011;16488;52.396;10.696;2024-01-16T16:36:30;24.08;;;10.45;;
29550;SDS011;16488;52.396;10.696;2024-01-16T16:38:57;19.48;;;9.45;;
29550;SDS011;16488;52.396;10.696;2024-01-16T16:41:24;24.52;;;10.15;;
29550;SDS011;16488;52.396;10.696;2024-01-16T16:43:51;24.98;;;8.85;;
29550;SDS011;16488;52.396;10.696;2024-01-16T16:48:43;12.63;;;8.55;;
29550;SDS011;16488;52.396;10.696;2024-01-16T16:51:13;20.58;;;9.63;;
29550;SDS011;16488;52.396;10.696;2024-01-16T16:53:43;26.10;;;9.52;;
29550;SDS011;16488;52.396;10.696;2024-01-16T16:56:12;20.95;;;7.70;;
29550;SDS011;16488;52.396;10.696;2024-01-16T16:58:43;23.42;;;8.52;;
29550;SDS011;16488;52.396;10.696;2024-01-16T17:01:13;16.90;;;8.70;;
29550;SDS011;16488;52.396;10.696;2024-01-16T17:03:40;24.08;;;8.75;;